Time;durP1;ratioP1;P1;durP2;ratioP2;P2;SDS_P1;SDS_P2;PMS_P1;PMS_P2;Temp;Humidity;BMP_temperature;BMP_pressure;BME280_temperature;BME280_humidity;BME280_pressure;Samples;Min_cycle;Max_cycle;Signal;HPM_P1;HPM_P2
2024/02/10 00:01:56;;;;;;;28.03;25.63;;;9.40;99.90;;;;;;5027274;28;20201;-77
2024/02/10 00:04:23;;;;;;;24.17;22.37;;;9.40;99.90;;;;;;5007497;28;20639;-77
2024/02/10 00:06:50;;;;;;;25.27;23.30;;;9.40;99.90;;;;;;5023832;28;20209;-77
2024/02/10 00:09:18;;;;;;;26.63;24.50;;;9.40;99.90;;;;;;5024197;28;20224;-77
2024/02/10 00:11:46;;;;;;;27.90;25.67;;;9.40;99.90;;;;;;4998289;28;20205;-77
2024/02/10 00:14:14;;;;;;;24.27;22.47;;;9.40;99.90;;;;;;5023823;28;20259;-77
2024/02/10 00:16:40;;;;;;;23.60;21.80;;;9.40;99.90;;;;;;5014459;28;20271;-77
2024/02/10 00:19:09;;;;;;;24.40;22.60;;;9.40;99.90;;;;;;5024473;28;20253;-77
2024/02/10 00:21:36;;;;;;;26.20;24.20;;;9.40;99.90;;;;;;5032233;28;20292;-77
2024/02/10 00:24:04;;;;;;;24.30;22.37;;;9.40;99.90;;;;;;5006404;28;20571;-77
2024/02/10 00:26:31;;;;;;;23.97;22.07;;;9.40;99.90;;;;;;5019559;28;20219;-77
2024/02/10 00:28:59;;;;;;;25.40;23.33;;;9.40;99.90;;;;;;5006247;28;20201;-77
2024/02/10 00:31:27;;;;;;;25.17;23.17;;;9.40;99.90;;;;;;5019756;28;20585;-77
2024/02/10 00:33:54;;;;;;;25.23;23.20;;;9.40;99.90;;;;;;5030590;28;20192;-77
2024/02/10 00:36:21;;;;;;;25.13;23.13;;;9.40;99.90;;;;;;5018887;28;20212;-77
2024/02/10 00:38:48;;;;;;;26.00;23.97;;;9.40;99.90;;;;;;5021454;28;20200;-77
2024/02/10 00:41:16;;;;;;;24.30;22.40;;;9.40;99.90;;;;;;5031861;28;20228;-77
2024/02/10 00:43:45;;;;;;;25.17;23.20;;;9.40;99.90;;;;;;5006662;28;20209;-77
2024/02/10 00:46:15;;;;;;;23.60;21.70;;;9.40;99.90;;;;;;5023927;28;20212;-77
2024/02/10 00:48:42;;;;;;;23.57;21.77;;;9.40;99.90;;;;;;5031567;28;20219;-77
2024/02/10 00:51:09;;;;;;;22.33;20.63;;;9.30;99.90;;;;;;5012248;28;20259;-77
2024/02/10 00:53:39;;;;;;;24.60;22.67;;;9.40;99.90;;;;;;5023217;28;20235;-77
2024/02/10 00:56:08;;;;;;;23.47;21.67;;;9.30;99.90;;;;;;5011380;28;20307;-78
2024/02/10 00:58:35;;;;;;;21.93;20.43;;;9.30;99.90;;;;;;5025808;28;20673;-77
2024/02/10 01:01:01;;;;;;;22.53;20.93;;;9.40;99.90;;;;;;5005634;28;20204;-78
2024/02/10 01:03:30;;;;;;;23.90;22.10;;;9.40;99.90;;;;;;5006315;28;20208;-77
2024/02/10 01:05:57;;;;;;;23.13;21.33;;;9.40;99.90;;;;;;5007349;28;20227;-76
2024/02/10 01:08:24;;;;;;;21.93;20.33;;;9.40;99.90;;;;;;5026287;28;20204;-77
2024/02/10 01:10:53;;;;;;;23.20;21.40;;;9.30;99.90;;;;;;5025015;28;20253;-76
2024/02/10 01:13:19;;;;;;;23.60;21.73;;;9.30;99.90;;;;;;5003460;28;20201;-77
2024/02/10 01:15:50;;;;;;;22.47;20.83;;;9.30;99.90;;;;;;5010283;28;20600;-77
2024/02/10 01:18:17;;;;;;;23.80;22.10;;;9.30;99.90;;;;;;5026352;28;20212;-77
2024/02/10 01:20:45;;;;;;;25.00;23.10;;;9.30;99.90;;;;;;5009960;28;20204;-77
2024/02/10 01:23:12;;;;;;;23.47;21.70;;;9.30;99.90;;;;;;5031107;28;20257;-77
2024/02/10 01:25:40;;;;;;;23.37;21.60;;;9.30;99.90;;;;;;5010469;28;20271;-77
2024/02/10 01:28:07;;;;;;;24.07;22.07;;;9.30;99.90;;;;;;5031747;28;20655;-77
2024/02/10 01:30:34;;;;;;;23.47;21.73;;;9.20;99.90;;;;;;5026012;28;20193;-77
2024/02/10 01:33:01;;;;;;;24.13;22.27;;;9.30;99.90;;;;;;5028553;28;20200;-77
2024/02/10 01:35:28;;;;;;;24.47;22.57;;;9.20;99.90;;;;;;5013906;28;20220;-77
2024/02/10 01:37:59;;;;;;;24.37;22.47;;;9.20;99.90;;;;;;5027135;28;20275;-77
2024/02/10 01:40:26;;;;;;;23.57;21.87;;;9.20;99.90;;;;;;5000012;28;20738;-77
2024/02/10 01:42:53;;;;;;;24.80;22.80;;;9.20;99.90;;;;;;5023211;28;20194;-77
2024/02/10 01:45:20;;;;;;;23.13;21.43;;;9.20;99.90;;;;;;5004101;28;20209;-78
2024/02/10 01:47:47;;;;;;;23.53;21.73;;;9.10;99.90;;;;;;5027105;28;20200;-77
2024/02/10 01:50:14;;;;;;;23.60;21.80;;;9.10;99.90;;;;;;5010016;28;20201;-77
2024/02/10 01:52:41;;;;;;;22.63;21.00;;;9.10;99.90;;;;;;5034333;28;20219;-77
2024/02/10 01:55:10;;;;;;;23.97;21.90;;;9.10;99.90;;;;;;5004552;28;20224;-77
2024/02/10 01:57:38;;;;;;;23.43;21.63;;;9.10;99.90;;;;;;5016910;28;20216;-77
2024/02/10 02:00:06;;;;;;;22.70;20.77;;;9.10;99.90;;;;;;5032586;28;20253;-77
2024/02/10 02:02:33;;;;;;;23.07;21.37;;;9.00;99.90;;;;;;5011488;28;20661;-77
2024/02/10 02:05:01;;;;;;;24.20;22.20;;;9.00;99.90;;;;;;5006621;28;20765;-77
2024/02/10 02:07:30;;;;;;;23.30;21.57;;;9.00;99.90;;;;;;5034138;28;20242;-77
2024/02/10 02:09:58;;;;;;;25.23;23.23;;;9.00;99.90;;;;;;5026000;28;20733;-77
2024/02/10 02:12:26;;;;;;;23.63;21.83;;;9.00;99.90;;;;;;5030060;28;20345;-77
2024/02/10 02:14:54;;;;;;;22.93;21.20;;;9.00;99.90;;;;;;5035984;28;20208;-77
2024/02/10 02:17:21;;;;;;;23.00;21.30;;;8.90;99.90;;;;;;5000733;28;20215;-77
2024/02/10 02:19:48;;;;;;;24.13;22.30;;;8.90;99.90;;;;;;5012810;28;20206;-77
2024/02/10 02:22:15;;;;;;;23.23;21.43;;;8.80;99.90;;;;;;5034356;28;20227;-77
2024/02/10 02:24:46;;;;;;;23.83;22.13;;;8.70;99.90;;;;;;5006746;28;20220;-77
2024/02/10 02:27:13;;;;;;;24.40;22.63;;;8.70;99.90;;;;;;5033844;28;20737;-77
2024/02/10 02:29:40;;;;;;;23.83;22.03;;;8.60;99.90;;;;;;5020786;28;20208;-77
2024/02/10 02:32:08;;;;;;;24.57;22.67;;;8.60;99.90;;;;;;5034347;28;20626;-77
2024/02/10 02:34:35;;;;;;;24.90;22.90;;;8.50;99.90;;;;;;5015948;28;20290;-78
2024/02/10 02:37:03;;;;;;;24.20;22.40;;;8.40;99.90;;;;;;5006891;28;20211;-77
2024/02/10 02:39:33;;;;;;;23.83;22.00;;;8.40;99.90;;;;;;5021299;28;20205;-77
2024/02/10 02:42:02;;;;;;;24.23;22.33;;;8.30;99.90;;;;;;5009403;28;20292;-77
2024/02/10 02:44:29;;;;;;;24.87;22.87;;;8.30;99.90;;;;;;5027284;28;20659;-77
2024/02/10 02:47:00;;;;;;;23.10;21.37;;;8.30;99.90;;;;;;5007565;28;20204;-77
2024/02/10 02:49:26;;;;;;;23.90;22.03;;;8.30;99.90;;;;;;5033512;28;20274;-77
2024/02/10 02:51:54;;;;;;;22.80;21.00;;;8.30;99.90;;;;;;5033533;28;20192;-77
2024/02/10 02:54:21;;;;;;;22.73;21.03;;;8.20;99.90;;;;;;5027419;28;20202;-77
2024/02/10 02:56:51;;;;;;;23.83;22.03;;;8.20;99.90;;;;;;5033485;28;20259;-77
2024/02/10 02:59:20;;;;;;;23.77;21.87;;;8.20;99.90;;;;;;5033611;28;20202;-77
2024/02/10 03:01:49;;;;;;;22.93;21.13;;;8.20;99.90;;;;;;5026501;28;20200;-77
2024/02/10 03:04:16;;;;;;;22.03;20.23;;;8.20;99.90;;;;;;5007229;28;20200;-78
2024/02/10 03:06:44;;;;;;;25.80;23.70;;;8.20;99.90;;;;;;5002082;28;20226;-78
2024/02/10 03:09:12;;;;;;;25.83;23.53;;;8.20;99.90;;;;;;5024826;28;20210;-77
2024/02/10 03:11:39;;;;;;;26.13;24.03;;;8.20;99.90;;;;;;5033056;28;20713;-77
2024/02/10 03:14:07;;;;;;;24.47;22.53;;;8.20;99.90;;;;;;5031966;28;20254;-77
2024/02/10 03:16:35;;;;;;;25.20;23.30;;;8.10;99.90;;;;;;5000158;28;20703;-77
2024/02/10 03:19:04;;;;;;;22.63;20.93;;;8.10;99.90;;;;;;4999954;28;20683;-77
2024/02/10 03:21:33;;;;;;;22.90;21.07;;;8.10;99.90;;;;;;5032573;28;20199;-77
2024/02/10 03:24:02;;;;;;;25.23;23.13;;;8.00;99.90;;;;;;5009108;28;20203;-77
2024/02/10 03:26:30;;;;;;;24.50;22.57;;;8.00;99.90;;;;;;5016070;28;20223;-77
2024/02/10 03:28:57;;;;;;;24.90;22.70;;;7.90;99.90;;;;;;5015067;28;20196;-77
2024/02/10 03:31:25;;;;;;;25.60;23.30;;;7.90;99.90;;;;;;5032917;28;20206;-77
2024/02/10 03:33:53;;;;;;;23.97;21.97;;;7.90;99.90;;;;;;5032479;28;20188;-77
2024/02/10 03:36:20;;;;;;;24.43;22.27;;;7.90;99.90;;;;;;5030205;28;20251;-77
2024/02/10 03:38:46;;;;;;;21.90;20.20;;;7.90;99.90;;;;;;5027494;28;20215;-77
2024/02/10 03:41:15;;;;;;;24.90;22.73;;;7.90;99.90;;;;;;5008818;28;20228;-77
2024/02/10 03:43:42;;;;;;;24.87;22.77;;;7.90;99.90;;;;;;5031757;28;20651;-77
2024/02/10 03:46:08;;;;;;;25.50;23.43;;;7.80;99.90;;;;;;5007166;28;20317;-77
2024/02/10 03:48:39;;;;;;;23.83;21.90;;;7.80;99.90;;;;;;5011659;28;20184;-77
2024/02/10 03:51:07;;;;;;;25.00;22.90;;;7.80;99.90;;;;;;4999402;28;20197;-77
2024/02/10 03:53:35;;;;;;;26.90;24.50;;;7.80;99.90;;;;;;5011503;28;20671;-77
2024/02/10 03:56:02;;;;;;;25.50;23.40;;;7.80;99.90;;;;;;5032215;28;20215;-76
2024/02/10 03:58:29;;;;;;;23.97;22.07;;;7.80;99.90;;;;;;5032077;28;20239;-77
2024/02/10 04:00:57;;;;;;;23.03;21.23;;;7.80;99.90;;;;;;5013770;28;20250;-78
2024/02/10 04:03:28;;;;;;;22.87;21.10;;;7.70;99.90;;;;;;5006016;28;20206;-77
2024/02/10 04:05:54;;;;;;;23.13;21.33;;;7.80;99.90;;;;;;5032412;28;20212;-77
2024/02/10 04:08:29;;;;;;;25.57;23.43;;;7.80;99.90;;;;;;5029839;28;20216;-77
2024/02/10 04:10:56;;;;;;;24.40;22.30;;;7.80;99.90;;;;;;5001470;28;20204;-77
2024/02/10 04:13:23;;;;;;;26.37;24.13;;;7.80;99.90;;;;;;5019715;28;20675;-77
2024/02/10 04:15:50;;;;;;;24.10;22.20;;;7.70;99.90;;;;;;5008138;28;20220;-77
2024/02/10 04:18:18;;;;;;;23.50;21.70;;;7.70;99.90;;;;;;5013120;28;20281;-77
2024/02/10 04:20:46;;;;;;;25.00;23.10;;;7.70;99.90;;;;;;5025588;28;20198;-78
2024/02/10 04:23:13;;;;;;;25.07;22.97;;;7.70;99.90;;;;;;5006102;28;20200;-77
2024/02/10 04:25:41;;;;;;;23.73;21.83;;;7.70;99.90;;;;;;5007907;28;20711;-77
2024/02/10 04:28:08;;;;;;;26.47;24.20;;;7.60;99.90;;;;;;5013527;28;20409;-77
2024/02/10 04:30:35;;;;;;;27.00;24.70;;;7.60;99.90;;;;;;5018661;28;20230;-77
2024/02/10 04:33:01;;;;;;;27.20;24.87;;;7.60;99.90;;;;;;5032166;28;20258;-79
2024/02/10 04:35:28;;;;;;;26.00;23.90;;;7.70;99.90;;;;;;5031351;28;20277;-79
2024/02/10 04:37:55;;;;;;;24.53;22.63;;;7.60;99.90;;;;;;5028326;28;20212;-77
2024/02/10 04:40:24;;;;;;;26.17;23.80;;;7.60;99.90;;;;;;5006252;28;20200;-77
2024/02/10 04:42:53;;;;;;;28.10;25.70;;;7.60;99.90;;;;;;5027577;28;20203;-77
2024/02/10 04:45:25;;;;;;;26.37;24.17;;;7.60;99.90;;;;;;5031872;28;20246;-77
2024/02/10 04:47:52;;;;;;;26.30;24.03;;;7.60;99.90;;;;;;5031738;28;20192;-77
2024/02/10 04:50:19;;;;;;;26.67;24.23;;;7.50;99.90;;;;;;5031909;28;20573;-77
2024/02/10 04:52:46;;;;;;;28.47;25.97;;;7.50;99.90;;;;;;5014120;28;20196;-77
2024/02/10 04:55:15;;;;;;;28.40;25.63;;;7.50;99.90;;;;;;5013685;28;20255;-77
2024/02/10 04:57:42;;;;;;;28.77;26.17;;;7.50;99.90;;;;;;5014108;28;20220;-77
2024/02/10 05:00:15;;;;;;;27.57;25.17;;;7.60;99.90;;;;;;5014026;28;20705;-76
2024/02/10 05:02:44;;;;;;;26.67;24.37;;;7.60;99.90;;;;;;5014056;28;20223;-77
2024/02/10 05:05:11;;;;;;;28.63;26.13;;;7.60;99.90;;;;;;5031544;28;20242;-76
2024/02/10 05:07:42;;;;;;;27.53;25.13;;;7.60;99.90;;;;;;5014073;28;20294;-77
2024/02/10 05:10:11;;;;;;;28.87;26.27;;;7.60;99.90;;;;;;5013870;28;20265;-77
2024/02/10 05:12:38;;;;;;;25.70;23.60;;;7.70;99.90;;;;;;5006390;28;20199;-77
2024/02/10 05:15:08;;;;;;;25.07;23.00;;;7.60;99.90;;;;;;5031392;28;20215;-77
2024/02/10 05:17:40;;;;;;;24.70;22.70;;;7.70;99.90;;;;;;5031378;28;20873;-77
2024/02/10 05:20:13;;;;;;;25.67;23.57;;;7.70;99.90;;;;;;5013807;28;20678;-77
2024/02/10 05:22:42;;;;;;;26.57;24.27;;;7.70;99.90;;;;;;5022932;28;20220;-77
2024/02/10 05:25:11;;;;;;;27.87;25.43;;;7.60;99.90;;;;;;5031277;28;20274;-77
2024/02/10 05:27:39;;;;;;;27.27;24.97;;;7.60;99.90;;;;;;5026107;28;20218;-77
2024/02/10 05:30:11;;;;;;;26.03;24.00;;;7.60;99.90;;;;;;5035685;28;20227;-77
2024/02/10 05:32:40;;;;;;;26.23;24.07;;;7.60;99.90;;;;;;5023448;28;20614;-77
2024/02/10 05:35:10;;;;;;;27.93;25.57;;;7.60;99.90;;;;;;5035345;28;20216;-77
2024/02/10 05:37:38;;;;;;;27.50;25.13;;;7.60;99.90;;;;;;5014161;28;20219;-77
2024/02/10 05:40:08;;;;;;;26.73;24.53;;;7.60;99.90;;;;;;5026777;28;20204;-77
2024/02/10 05:42:36;;;;;;;29.30;26.60;;;7.60;99.90;;;;;;5009798;28;20204;-78
2024/02/10 05:45:06;;;;;;;29.07;26.50;;;7.70;99.90;;;;;;5034948;28;20218;-77
2024/02/10 05:47:34;;;;;;;29.73;27.03;;;7.70;99.90;;;;;;5034299;28;20254;-77
2024/02/10 05:50:04;;;;;;;28.03;25.43;;;7.80;99.90;;;;;;5017097;28;20192;-77
2024/02/10 05:52:34;;;;;;;28.20;25.80;;;7.80;99.90;;;;;;5009205;28;20246;-76
2024/02/10 05:55:03;;;;;;;27.80;25.40;;;7.80;99.90;;;;;;5034125;28;20218;-77
2024/02/10 05:57:30;;;;;;;30.00;27.30;;;7.80;99.90;;;;;;5038727;28;20214;-78
2024/02/10 05:59:56;;;;;;;30.00;27.43;;;7.70;99.90;;;;;;5027568;28;20276;-78
2024/02/10 06:02:23;;;;;;;29.47;26.87;;;7.80;99.90;;;;;;5020792;28;20251;-77
2024/02/10 06:04:52;;;;;;;28.83;26.20;;;7.80;99.90;;;;;;5010544;28;20216;-77
2024/02/10 06:07:22;;;;;;;31.13;28.03;;;7.80;99.90;;;;;;5029153;28;20218;-78
2024/02/10 06:09:49;;;;;;;29.37;26.77;;;7.70;99.90;;;;;;5006851;28;20288;-77
2024/02/10 06:12:16;;;;;;;29.97;27.37;;;7.70;99.90;;;;;;5023269;28;20328;-77
2024/02/10 06:14:44;;;;;;;29.77;27.17;;;7.70;99.90;;;;;;5008149;28;20210;-76
2024/02/10 06:17:11;;;;;;;28.73;26.43;;;7.70;99.90;;;;;;5007177;28;20204;-78
2024/02/10 06:19:38;;;;;;;28.63;26.23;;;7.70;99.90;;;;;;5013424;28;20220;-78
2024/02/10 06:22:08;;;;;;;29.70;27.10;;;7.70;99.90;;;;;;5023522;28;20249;-77
2024/02/10 06:24:36;;;;;;;27.53;25.33;;;7.60;99.90;;;;;;5015911;28;20215;-79
2024/02/10 06:27:03;;;;;;;28.57;26.20;;;7.60;99.90;;;;;;5027697;28;20667;-77
2024/02/10 06:29:31;;;;;;;26.27;24.07;;;7.60;99.90;;;;;;5028152;28;20196;-77
2024/02/10 06:31:59;;;;;;;26.40;24.30;;;7.50;99.90;;;;;;5016442;28;20188;-77
2024/02/10 06:34:27;;;;;;;26.47;24.47;;;7.50;99.90;;;;;;5007833;28;20648;-77
2024/02/10 06:36:54;;;;;;;28.93;26.50;;;7.50;99.90;;;;;;5002725;28;20414;-76
2024/02/10 06:39:21;;;;;;;31.03;28.43;;;7.60;99.90;;;;;;5030190;28;20230;-76
2024/02/10 06:41:50;;;;;;;35.23;30.83;;;7.60;99.90;;;;;;5010085;28;20658;-77
2024/02/10 06:44:19;;;;;;;29.63;27.13;;;7.60;99.90;;;;;;5028927;28;20620;-79
2024/02/10 06:46:48;;;;;;;29.20;26.70;;;7.60;99.90;;;;;;5008234;28;20239;-77
2024/02/10 06:49:20;;;;;;;37.57;32.60;;;7.60;99.90;;;;;;5026483;28;20211;-77
2024/02/10 06:51:48;;;;;;;32.40;29.60;;;7.60;99.90;;;;;;5011883;28;20298;-81
2024/02/10 06:54:18;;;;;;;30.10;27.60;;;7.60;99.90;;;;;;5009011;28;20306;-81
2024/02/10 06:56:49;;;;;;;28.90;26.50;;;7.60;99.90;;;;;;5019450;28;20216;-83
2024/02/10 06:59:16;;;;;;;29.53;27.03;;;7.60;99.90;;;;;;5032395;28;20277;-77
2024/02/10 07:01:43;;;;;;;27.70;25.53;;;7.50;99.90;;;;;;5014553;28;20196;-79
2024/02/10 07:04:13;;;;;;;29.93;27.43;;;7.50;99.90;;;;;;5025523;28;20360;-78
2024/02/10 07:06:40;;;;;;;27.30;25.10;;;7.60;99.90;;;;;;5011884;28;20323;-77
2024/02/10 07:09:07;;;;;;;27.83;25.43;;;7.60;99.90;;;;;;5031042;28;20195;-77
2024/02/10 07:11:34;;;;;;;27.43;25.23;;;7.60;99.90;;;;;;5027433;28;20354;-78
2024/02/10 07:14:04;;;;;;;26.90;24.80;;;7.60;99.90;;;;;;5016448;28;20308;-77
2024/02/10 07:16:31;;;;;;;26.80;24.70;;;7.70;99.90;;;;;;5031989;28;20220;-78
2024/02/10 07:18:59;;;;;;;27.57;25.47;;;7.60;99.90;;;;;;5007477;28;20279;-77
2024/02/10 07:21:26;;;;;;;28.23;26.00;;;7.70;99.90;;;;;;5025709;28;20201;-78
2024/02/10 07:23:53;;;;;;;26.77;24.67;;;7.70;99.90;;;;;;5023218;28;20188;-77
2024/02/10 07:26:20;;;;;;;28.03;25.63;;;7.70;99.90;;;;;;5008332;28;20279;-78
2024/02/10 07:28:53;;;;;;;27.67;25.40;;;7.80;99.90;;;;;;5030228;28;20192;-78
2024/02/10 07:31:22;;;;;;;26.43;24.23;;;7.80;99.90;;;;;;5028103;28;20253;-78
2024/02/10 07:33:49;;;;;;;24.73;22.83;;;7.80;99.90;;;;;;5034908;28;20198;-78
2024/02/10 07:36:16;;;;;;;25.90;23.90;;;7.90;99.90;;;;;;5027978;28;20224;-78
2024/02/10 07:38:43;;;;;;;26.27;24.27;;;7.90;99.90;;;;;;5007649;28;20816;-77
2024/02/10 07:41:10;;;;;;;28.67;26.27;;;7.90;99.90;;;;;;5026906;28;20198;-78
2024/02/10 07:43:37;;;;;;;28.03;25.73;;;8.00;99.90;;;;;;5020697;28;20571;-78
2024/02/10 07:46:04;;;;;;;27.70;25.50;;;8.00;99.90;;;;;;5035328;28;20222;-78
2024/02/10 07:48:32;;;;;;;26.30;24.30;;;8.00;99.90;;;;;;5025196;28;20552;-78
2024/02/10 07:50:59;;;;;;;26.67;24.60;;;8.00;99.90;;;;;;5021958;28;20200;-78
2024/02/10 07:53:26;;;;;;;27.10;24.97;;;8.00;99.90;;;;;;5017598;28;20249;-78
2024/02/10 07:55:53;;;;;;;26.97;24.70;;;8.10;99.90;;;;;;5013407;28;20250;-78
2024/02/10 07:58:21;;;;;;;25.13;23.13;;;8.10;99.90;;;;;;5033409;28;20228;-78
2024/02/10 08:00:49;;;;;;;24.47;22.57;;;8.20;99.90;;;;;;5006570;28;20291;-77
2024/02/10 08:03:16;;;;;;;24.60;22.70;;;8.20;99.90;;;;;;5004288;28;20235;-78
2024/02/10 08:05:51;;;;;;;25.10;23.20;;;8.30;99.90;;;;;;5018397;28;20224;-78
2024/02/10 08:08:21;;;;;;;23.50;21.80;;;8.30;99.90;;;;;;5033358;28;20221;-78
2024/02/10 08:10:48;;;;;;;23.60;21.90;;;8.40;99.90;;;;;;5034983;28;20643;-78
2024/02/10 08:13:15;;;;;;;22.10;20.50;;;8.50;99.90;;;;;;5027009;28;20196;-78
2024/02/10 08:15:41;;;;;;;21.63;20.13;;;8.50;99.90;;;;;;5009413;28;20279;-78
2024/02/10 08:18:09;;;;;;;22.07;20.47;;;8.50;99.90;;;;;;5015866;28;20263;-78
2024/02/10 08:20:35;;;;;;;22.30;20.70;;;8.40;99.90;;;;;;5025377;28;20295;-78
2024/02/10 08:23:04;;;;;;;22.43;20.83;;;8.40;99.90;;;;;;5004190;28;20335;-78
2024/02/10 08:25:31;;;;;;;21.53;20.03;;;8.40;99.90;;;;;;5016185;28;20234;-78
2024/02/10 08:27:59;;;;;;;22.47;20.97;;;8.40;99.90;;;;;;5034331;28;20203;-78
2024/02/10 08:30:27;;;;;;;21.93;20.43;;;8.40;99.90;;;;;;5008669;28;20199;-78
2024/02/10 08:32:56;;;;;;;21.93;20.23;;;8.50;99.90;;;;;;5019483;28;20270;-78
2024/02/10 08:35:24;;;;;;;16.10;14.80;;;8.50;99.90;;;;;;5029196;28;20230;-78
2024/02/10 08:37:51;;;;;;;20.73;19.03;;;8.50;99.90;;;;;;5003629;28;20243;-78
2024/02/10 08:40:19;;;;;;;20.03;18.40;;;8.60;99.90;;;;;;5010471;28;20274;-77
2024/02/10 08:42:47;;;;;;;21.27;19.57;;;8.60;99.90;;;;;;5003438;28;20270;-78
2024/02/10 08:45:14;;;;;;;23.47;21.47;;;8.60;99.90;;;;;;5026752;28;20221;-78
2024/02/10 08:47:42;;;;;;;17.83;16.20;;;8.60;99.90;;;;;;5029725;28;20199;-78
2024/02/10 08:50:11;;;;;;;19.93;18.03;;;8.60;99.90;;;;;;5021576;28;20273;-78
2024/02/10 08:52:38;;;;;;;16.50;14.70;;;8.70;99.90;;;;;;5013340;28;20231;-77
2024/02/10 08:55:07;;;;;;;15.20;11.83;;;8.70;99.90;;;;;;5028301;28;20244;-78
2024/02/10 08:57:36;;;;;;;19.83;17.73;;;8.80;99.90;;;;;;5029556;28;20568;-77
2024/02/10 09:00:14;;;;;;;15.33;13.73;;;8.80;99.90;;;;;;5020912;28;20259;-78
2024/02/10 09:02:41;;;;;;;21.07;19.07;;;8.80;99.90;;;;;;5018722;28;20302;-77
2024/02/10 09:05:09;;;;;;;14.53;13.03;;;8.80;99.90;;;;;;5030562;28;20220;-77
2024/02/10 09:07:36;;;;;;;24.23;22.03;;;8.90;99.90;;;;;;5008538;28;20859;-78
2024/02/10 09:10:03;;;;;;;14.83;13.27;;;8.90;99.90;;;;;;5023762;28;20246;-78
2024/02/10 09:12:30;;;;;;;22.17;20.10;;;8.90;99.90;;;;;;5036425;28;20273;-78
2024/02/10 09:14:58;;;;;;;19.93;18.13;;;8.90;99.90;;;;;;5016937;28;20774;-78
2024/02/10 09:17:25;;;;;;;24.93;22.93;;;8.80;99.90;;;;;;5014826;28;20223;-78
2024/02/10 09:19:52;;;;;;;23.97;21.97;;;8.80;99.90;;;;;;5028310;28;20232;-77
2024/02/10 09:22:19;;;;;;;24.00;22.00;;;8.80;99.90;;;;;;5035060;28;20253;-78
2024/02/10 09:24:48;;;;;;;23.27;21.33;;;8.80;99.90;;;;;;5009376;28;20211;-78
2024/02/10 09:27:15;;;;;;;23.63;21.53;;;8.80;99.90;;;;;;5049168;23;20259;-77
2024/02/10 09:29:41;;;;;;;25.03;22.90;;;8.80;99.90;;;;;;5029475;28;20200;-76
2024/02/10 09:32:10;;;;;;;25.63;23.43;;;8.70;99.90;;;;;;5043412;28;20215;-77
2024/02/10 09:34:36;;;;;;;24.03;22.13;;;8.70;99.90;;;;;;5039929;28;20234;-77
2024/02/10 09:37:03;;;;;;;25.13;23.23;;;8.70;99.90;;;;;;5038375;28;20219;-77
2024/02/10 09:39:30;;;;;;;24.03;22.13;;;8.70;99.90;;;;;;5019799;28;20219;-76
2024/02/10 09:42:00;;;;;;;23.67;21.87;;;8.80;99.90;;;;;;5028356;28;20197;-77
2024/02/10 09:44:27;;;;;;;25.07;23.17;;;8.80;99.90;;;;;;5021660;28;20550;-76
2024/02/10 09:46:56;;;;;;;24.77;22.77;;;8.80;99.90;;;;;;5027396;28;20707;-77
2024/02/10 09:49:27;;;;;;;24.73;22.77;;;8.80;99.90;;;;;;5028511;28;20216;-76
2024/02/10 09:51:54;;;;;;;23.60;21.80;;;8.80;99.90;;;;;;5023626;28;20205;-77
2024/02/10 09:54:21;;;;;;;24.30;22.30;;;8.80;99.90;;;;;;5023832;28;20227;-76
2024/02/10 09:56:50;;;;;;;23.97;21.87;;;8.80;99.90;;;;;;5026185;28;20709;-77
2024/02/10 09:59:22;;;;;;;23.27;21.47;;;8.80;99.90;;;;;;5020788;28;20220;-77
2024/02/10 10:01:49;;;;;;;23.07;21.37;;;8.90;99.90;;;;;;5022164;28;20292;-77
2024/02/10 10:04:16;;;;;;;23.57;21.77;;;8.90;99.90;;;;;;5014502;28;20197;-77
2024/02/10 10:06:45;;;;;;;24.17;22.33;;;8.80;99.90;;;;;;5022508;28;20228;-77
2024/02/10 10:09:14;;;;;;;23.10;21.30;;;8.90;99.90;;;;;;5044100;28;20196;-77
2024/02/10 10:11:43;;;;;;;23.50;21.63;;;9.00;99.90;;;;;;5024376;28;20790;-77
2024/02/10 10:14:09;;;;;;;23.50;21.70;;;9.00;99.90;;;;;;5031564;28;20314;-77
2024/02/10 10:16:36;;;;;;;23.27;21.40;;;9.00;99.90;;;;;;5023303;28;20220;-76
2024/02/10 10:19:05;;;;;;;22.37;20.47;;;9.00;99.90;;;;;;5007337;28;20217;-77
2024/02/10 10:21:32;;;;;;;22.80;21.00;;;9.10;99.90;;;;;;5022662;28;20204;-77
2024/02/10 10:24:00;;;;;;;22.17;20.40;;;9.10;99.90;;;;;;5015355;28;20200;-77
2024/02/10 10:26:27;;;;;;;21.90;20.30;;;9.00;99.90;;;;;;5026068;28;20220;-77
2024/02/10 10:28:55;;;;;;;23.40;21.40;;;9.10;99.90;;;;;;5026553;28;20192;-77
2024/02/10 10:31:23;;;;;;;23.87;21.97;;;9.10;99.90;;;;;;5027357;28;20201;-77
2024/02/10 10:33:51;;;;;;;22.00;20.30;;;9.10;99.90;;;;;;5029783;28;20205;-77
2024/02/10 10:36:18;;;;;;;23.00;21.10;;;9.10;99.90;;;;;;5031011;28;20228;-77
2024/02/10 10:38:46;;;;;;;23.27;21.37;;;9.10;99.90;;;;;;5017217;28;20208;-79
2024/02/10 10:41:18;;;;;;;23.33;21.43;;;9.20;99.90;;;;;;5019029;28;20201;-84
2024/02/10 10:43:46;;;;;;;24.87;22.87;;;9.20;99.90;;;;;;5014806;28;20206;-79
2024/02/10 10:46:16;;;;;;;22.93;21.03;;;9.20;99.90;;;;;;5030961;28;20291;-84
2024/02/10 10:48:44;;;;;;;24.20;22.20;;;9.30;99.90;;;;;;5028985;28;20757;-84
2024/02/10 10:51:11;;;;;;;23.63;21.63;;;9.30;99.90;;;;;;5026180;28;20582;-84
2024/02/10 10:53:41;;;;;;;23.87;21.87;;;9.30;99.90;;;;;;5021270;28;20756;-83
2024/02/10 10:56:10;;;;;;;27.27;24.87;;;9.20;99.90;;;;;;5016241;28;20240;-83
2024/02/10 10:58:44;;;;;;;26.87;24.57;;;9.30;99.90;;;;;;5030792;28;20252;-82
2024/02/10 11:01:15;;;;;;;27.23;25.00;;;9.40;99.90;;;;;;5015873;28;20213;-84
2024/02/10 11:03:42;;;;;;;30.77;27.67;;;9.40;99.90;;;;;;5024785;28;20701;-81
2024/02/10 11:06:12;;;;;;;20.57;17.50;;;9.30;99.90;;;;;;5029190;28;20774;-84
2024/02/10 11:08:40;;;;;;;21.27;18.60;;;9.30;99.90;;;;;;5025957;28;20206;-85
2024/02/10 11:11:10;;;;;;;20.80;18.07;;;9.30;99.90;;;;;;5033345;28;20229;-80
2024/02/10 11:13:39;;;;;;;20.67;17.30;;;9.30;99.90;;;;;;5023344;28;20207;-78
2024/02/10 11:16:10;;;;;;;24.53;22.33;;;9.20;99.90;;;;;;5023830;28;20213;-77
2024/02/10 11:18:38;;;;;;;22.33;20.23;;;9.30;99.90;;;;;;5020181;28;20237;-76
2024/02/10 11:21:09;;;;;;;22.07;19.93;;;9.30;99.90;;;;;;5006071;28;20309;-78
2024/02/10 11:23:37;;;;;;;20.83;19.03;;;9.30;99.90;;;;;;5012517;28;20198;-78
2024/02/10 11:26:07;;;;;;;20.50;18.57;;;9.40;99.90;;;;;;5004713;28;20234;-80
2024/02/10 11:28:37;;;;;;;20.90;18.90;;;9.50;99.90;;;;;;5016321;28;20621;-80
2024/02/10 11:31:10;;;;;;;21.60;19.60;;;9.40;99.90;;;;;;5012848;28;20198;-79
2024/02/10 11:33:38;;;;;;;14.27;12.60;;;9.50;99.90;;;;;;5018093;28;20228;-80
2024/02/10 11:36:10;;;;;;;15.00;12.97;;;9.60;99.90;;;;;;5027755;28;20241;-80
2024/02/10 11:38:37;;;;;;;13.33;11.87;;;9.70;99.90;;;;;;5020539;28;20255;-77
2024/02/10 11:41:05;;;;;;;16.83;14.87;;;9.80;99.90;;;;;;5025500;28;20291;-77
2024/02/10 11:43:33;;;;;;;16.07;13.83;;;9.80;99.90;;;;;;5019390;28;20216;-77
2024/02/10 11:46:00;;;;;;;26.77;24.43;;;9.80;99.90;;;;;;5025720;28;20213;-77
2024/02/10 11:48:30;;;;;;;16.97;15.00;;;9.90;99.90;;;;;;5030849;28;20227;-78
2024/02/10 11:50:59;;;;;;;17.90;15.83;;;9.90;99.90;;;;;;5028760;28;20249;-77
2024/02/10 11:53:26;;;;;;;18.07;15.30;;;9.90;99.90;;;;;;5033192;28;20206;-77
2024/02/10 11:55:53;;;;;;;18.60;15.67;;;9.90;99.90;;;;;;5025688;28;20240;-79
2024/02/10 11:58:22;;;;;;;19.30;16.33;;;10.00;99.90;;;;;;5029489;28;20202;-79
2024/02/10 12:00:49;;;;;;;20.07;18.07;;;10.00;99.90;;;;;;5015917;28;20235;-79
2024/02/10 12:03:18;;;;;;;19.67;17.77;;;10.00;99.90;;;;;;5028008;28;20206;-78
2024/02/10 12:05:47;;;;;;;22.20;20.03;;;10.00;99.90;;;;;;5018820;28;20577;-79
2024/02/10 12:08:14;;;;;;;24.47;21.97;;;10.00;99.90;;;;;;5014211;28;20240;-78
2024/02/10 12:10:42;;;;;;;22.60;20.20;;;9.90;99.90;;;;;;5026294;28;20188;-79
2024/02/10 12:13:10;;;;;;;21.57;19.40;;;9.90;99.90;;;;;;5024267;28;20220;-76
2024/02/10 12:15:38;;;;;;;22.03;19.70;;;9.90;99.90;;;;;;5025867;28;20244;-77
2024/02/10 12:18:07;;;;;;;22.20;19.90;;;9.90;99.90;;;;;;5021195;28;20237;-77
2024/02/10 12:20:37;;;;;;;21.03;18.83;;;10.00;99.90;;;;;;5031540;28;20206;-78
2024/02/10 12:23:05;;;;;;;20.63;18.57;;;10.00;99.90;;;;;;5025836;28;20665;-79
2024/02/10 12:25:32;;;;;;;19.20;17.30;;;10.00;99.90;;;;;;5033654;28;20213;-78
2024/02/10 12:27:59;;;;;;;18.80;17.00;;;10.20;99.90;;;;;;5020605;28;20209;-76
2024/02/10 12:30:26;;;;;;;25.77;23.47;;;10.40;99.90;;;;;;5026649;28;20672;-78
2024/02/10 12:32:53;;;;;;;18.83;16.57;;;10.60;99.90;;;;;;5027043;28;20196;-76
2024/02/10 12:35:20;;;;;;;20.93;17.43;;;10.70;99.90;;;;;;5017966;28;20709;-78
2024/02/10 12:37:47;;;;;;;24.63;22.20;;;10.80;99.90;;;;;;5032995;28;20196;-78
2024/02/10 12:40:18;;;;;;;20.60;17.27;;;10.90;99.90;;;;;;5023696;28;20655;-77